Portada
METAR-TAF:

METAR-TAF

Aeropuertos :

Aeropuerto de Oujda Angads

Oujda, Marruecos

latitud: 34-47N, longitud: 001-56W, altitud: 468 m

Observación

El informe se hizo hace 16 minutos, a las 23:30 UTC
Viento 5 kt del sur
Temperatura 12°C
Humedad 76%
Presión 1013 hPa
Visibilidad 10 km o más
Escasas nubes a una altura de 5000 ft
Nubes dispersas a una altura de 13000 ft

METAR: GMFO 312330Z 19005KT 9999 FEW050 SCT130 12/08 Q1013 NOSIG

Hora: 00:46 (23:46 UTC)

Pronóstico

El informe se hizo hace 6 horas y 46 minutos, a las 17:00 UTC
Pronóstico válido del 31 a las 18 UTC al 01 a las 24 UTC
Viento 8 kt del norte-noroeste
Visibilidad 10 km o más
Nubes dispersas a una altura de 3300 ft
Nubes dispersas a una altura de 10000 ft

TAF: GMFO 311700Z 3118/0124 33008KT 9999 SCT033 SCT100

Observaciones y pronósticos meteorológicos de más de 4000 aeropuertos (mensajes METAR y TAF).

Los puntos amarillos y rojos representan las estaciones disponibles.

Ponga el ratón en el punto deseado para ver el nombre de la estación.

Haga clic para ver las observaciones y los pronósticos meteorológicos.

Para cambiar el mapa : haga clic en los botones verdes con una cruz de color negro para hacer un zoom, en el botón verde con un guión para alejar o en las flechas verdes para mapas adyacentes.


METAR-TAF: